createdAt,value
2023-02-05T00:02:52.160Z,102268.81
2023-02-05T00:07:53.506Z,102260.19
2023-02-05T00:12:54.960Z,102250.47
2023-02-05T00:17:56.260Z,102250.47
2023-02-05T00:22:57.660Z,102246.97
2023-02-05T00:27:59.723Z,102253.91
2023-02-05T00:33:01.204Z,102254.38
2023-02-05T00:38:03.004Z,102242.81
2023-02-05T00:43:04.404Z,102249.81
2023-02-05T00:48:05.880Z,102236.91
2023-02-05T00:53:07.666Z,102232.81
2023-02-05T00:58:08.985Z,102240.88
2023-02-05T01:03:10.488Z,102232.41
2023-02-05T01:08:13.562Z,102229.97
2023-02-05T01:13:17.939Z,102220.66
2023-02-05T01:18:19.689Z,102203.28
2023-02-05T01:23:21.083Z,102206.00
2023-02-05T01:28:22.528Z,102202.53
2023-02-05T01:33:24.077Z,102200.09
2023-02-05T01:38:25.460Z,102191.09
2023-02-05T01:43:27.011Z,102200.69
2023-02-05T01:48:37.711Z,102190.06
2023-02-05T01:53:40.385Z,102168.09
2023-02-05T01:58:47.310Z,102164.69
2023-02-05T02:03:50.252Z,102170.81
2023-02-05T02:08:52.171Z,102164.47
2023-02-05T02:13:56.557Z,102139.13
2023-02-05T02:18:57.940Z,102163.38
2023-02-05T02:24:35.504Z,102147.75
2023-02-05T02:29:39.240Z,102145.88
2023-02-05T02:34:48.255Z,102152.72
2023-02-05T02:40:00.758Z,102126.25
2023-02-05T02:45:07.398Z,102116.09
2023-02-05T02:50:18.889Z,102122.94
2023-02-05T02:55:22.530Z,102122.84
2023-02-05T03:00:26.567Z,102108.78
2023-02-05T03:05:29.693Z,102110.63
2023-02-05T03:10:42.582Z,102103.50
2023-02-05T03:15:44.989Z,102105.34
2023-02-05T03:21:00.129Z,102091.47
2023-02-05T03:26:01.560Z,102089.50
2023-02-05T03:31:20.045Z,102094.88
2023-02-05T03:37:03.565Z,102079.19
2023-02-05T03:42:15.154Z,102079.97
2023-02-05T03:47:33.771Z,102073.72
2023-02-05T03:52:40.849Z,102067.69
2023-02-05T03:57:55.034Z,102079.19
2023-02-05T04:02:57.130Z,102067.47
2023-02-05T04:07:58.579Z,102102.88
2023-02-05T04:12:59.870Z,102086.88
2023-02-05T04:18:01.520Z,102090.75
2023-02-05T04:23:02.912Z,102094.19
2023-02-05T04:28:05.664Z,102080.31
2023-02-05T04:33:07.229Z,102096.31
2023-02-05T04:38:10.053Z,102082.47
2023-02-05T04:43:11.356Z,102078.00
2023-02-05T04:48:12.679Z,102051.59
2023-02-05T04:53:14.330Z,102043.78
2023-02-05T04:58:15.982Z,102056.00
2023-02-05T05:03:17.291Z,102053.31
2023-02-05T05:08:21.494Z,102056.03
2023-02-05T05:13:23.044Z,102068.25
2023-02-05T05:18:24.465Z,102077.09
2023-02-05T05:23:25.879Z,102078.44
2023-02-05T05:28:27.693Z,102077.38
2023-02-05T05:33:28.973Z,102079.06
2023-02-05T05:38:30.282Z,102080.19
2023-02-05T05:43:46.497Z,102075.78
2023-02-05T05:48:57.069Z,102075.00
2023-02-05T05:53:58.545Z,102068.16
2023-02-05T05:58:59.874Z,102077.09
2023-02-05T06:04:03.917Z,102093.13
2023-02-05T06:09:05.620Z,102103.59
2023-02-05T06:14:06.956Z,102091.38
2023-02-05T06:19:08.315Z,102078.31
2023-02-05T06:24:09.675Z,102066.91
2023-02-05T06:29:11.022Z,102055.56
2023-02-05T06:34:12.480Z,102052.19
2023-02-05T06:39:13.827Z,102051.44
2023-02-05T06:44:15.167Z,102040.97
2023-02-05T06:49:16.532Z,102048.03
2023-02-05T06:54:17.922Z,102054.44
2023-02-05T06:59:19.694Z,102066.38
2023-02-05T07:04:21.256Z,102068.00
2023-02-05T07:09:22.730Z,102081.09
2023-02-05T07:14:24.176Z,102080.88
2023-02-05T07:19:25.933Z,102099.09
2023-02-05T07:24:27.524Z,102064.25
2023-02-05T07:29:28.988Z,102034.88
2023-02-05T07:34:30.306Z,102038.00
2023-02-05T07:39:33.639Z,102002.16
2023-02-05T07:44:35.020Z,101989.94
2023-02-05T07:49:36.661Z,101990.97
2023-02-05T07:54:38.250Z,102038.13
2023-02-05T07:59:39.617Z,102030.88
2023-02-05T08:04:41.024Z,102028.94
2023-02-05T08:09:42.356Z,102026.06
2023-02-05T08:14:43.967Z,102008.13
2023-02-05T08:19:45.538Z,102015.91
2023-02-05T08:24:46.890Z,102001.84
2023-02-05T08:29:49.213Z,102000.22
2023-02-05T08:34:50.655Z,101994.59
2023-02-05T08:39:52.461Z,102003.38
2023-02-05T08:44:56.069Z,102008.63
2023-02-05T08:49:57.381Z,101998.88
2023-02-05T08:54:58.888Z,101991.13
2023-02-05T09:00:00.312Z,101991.31
2023-02-05T09:05:09.053Z,101984.28
2023-02-05T09:10:12.975Z,101966.69
2023-02-05T09:15:14.532Z,101957.34
2023-02-05T09:20:16.087Z,101953.16
2023-02-05T09:25:17.441Z,101953.91
2023-02-05T09:30:18.945Z,101958.06
2023-02-05T09:35:20.302Z,101956.53
2023-02-05T09:40:25.448Z,101959.78
2023-02-05T09:45:38.439Z,101955.00
2023-02-05T09:50:42.122Z,101959.19
2023-02-05T09:55:45.889Z,101948.03
2023-02-05T10:00:54.901Z,101925.78
2023-02-05T10:06:02.388Z,101939.44
2023-02-05T10:11:09.303Z,101935.56
2023-02-05T10:16:46.227Z,101932.38
2023-02-05T10:22:10.926Z,101929.31
2023-02-05T10:27:18.346Z,101927.31
2023-02-05T10:32:25.179Z,101925.72
2023-02-05T10:37:41.653Z,101922.88
2023-02-05T10:43:18.245Z,101911.31
2023-02-05T10:48:34.014Z,101916.91
2023-02-05T10:53:36.261Z,101914.22
2023-02-05T10:58:47.819Z,101907.56
2023-02-05T11:04:03.150Z,101898.72
2023-02-05T11:09:24.792Z,101893.44
2023-02-05T11:14:34.360Z,101893.22
2023-02-05T11:19:35.722Z,101890.44
2023-02-05T11:24:40.405Z,101885.19
2023-02-05T11:29:42.660Z,101871.63
2023-02-05T11:34:44.028Z,101867.00
2023-02-05T11:39:53.833Z,101865.88
2023-02-05T11:44:58.735Z,101867.03
2023-02-05T11:50:00.986Z,101861.16
2023-02-05T11:55:03.304Z,101868.47
2023-02-05T12:00:16.053Z,101865.66
2023-02-05T12:05:19.490Z,101874.38
2023-02-05T12:10:51.409Z,101865.66
2023-02-05T12:16:11.366Z,101863.69
2023-02-05T12:21:48.348Z,101862.78
2023-02-05T12:26:57.548Z,101859.59
2023-02-05T12:32:08.422Z,101861.63
2023-02-05T12:37:44.973Z,101852.75
2023-02-05T12:43:11.239Z,101857.56
2023-02-05T12:48:32.320Z,101850.13
2023-02-05T12:53:51.957Z,101849.81
2023-02-05T12:59:01.377Z,101839.22
2023-02-05T13:04:03.624Z,101844.28
2023-02-05T13:09:16.205Z,101838.03
2023-02-05T13:14:21.288Z,101830.84
2023-02-05T13:19:29.995Z,101824.53
2023-02-05T13:24:57.125Z,101810.66
2023-02-05T13:29:59.845Z,101825.16
2023-02-05T13:35:02.020Z,101811.13
2023-02-05T13:40:15.364Z,101813.84
2023-02-05T13:45:41.566Z,101793.88
2023-02-05T13:50:59.289Z,101801.81
2023-02-05T13:56:31.016Z,101821.13
2023-02-05T14:01:40.838Z,101832.56
2023-02-05T14:06:46.705Z,101838.09
2023-02-05T14:11:48.051Z,101846.66
2023-02-05T14:16:51.030Z,101847.47
2023-02-05T14:22:02.093Z,101852.69
2023-02-05T14:27:03.594Z,101866.06
2023-02-05T14:32:05.278Z,101865.44
2023-02-05T14:37:24.948Z,101872.63
2023-02-05T14:42:29.254Z,101869.75
2023-02-05T14:47:35.832Z,101873.13
2023-02-05T14:52:42.465Z,101880.28
2023-02-05T14:57:56.704Z,101896.34
2023-02-05T15:02:58.060Z,101912.59
2023-02-05T15:08:29.568Z,101919.81
2023-02-05T15:13:32.030Z,101917.19
2023-02-05T15:18:38.872Z,101926.84
2023-02-05T15:23:43.916Z,101924.31
2023-02-05T15:28:56.368Z,101923.41
2023-02-05T15:34:06.760Z,101936.00
2023-02-05T15:39:29.084Z,101941.25
2023-02-05T15:44:33.797Z,101960.91
2023-02-05T15:49:40.182Z,101955.56
2023-02-05T15:54:41.592Z,101962.88
2023-02-05T15:59:43.030Z,101966.53
2023-02-05T16:04:44.656Z,101962.97
2023-02-05T16:09:48.918Z,101976.38
2023-02-05T16:15:00.950Z,101982.53
2023-02-05T16:20:15.082Z,101996.66
2023-02-05T16:25:28.728Z,101996.78
2023-02-05T16:30:40.280Z,102005.00
2023-02-05T16:35:46.307Z,102012.22
2023-02-05T16:40:51.934Z,102034.03
2023-02-05T16:46:08.553Z,102050.94
2023-02-05T16:51:55.279Z,102055.41
2023-02-05T16:57:12.767Z,102062.13
2023-02-05T17:02:29.178Z,102059.25
2023-02-05T17:07:31.730Z,102064.00
2023-02-05T17:12:33.076Z,102062.66
2023-02-05T17:17:46.084Z,102072.91
2023-02-05T17:23:05.724Z,102082.63
2023-02-05T17:28:13.137Z,102094.81
2023-02-05T17:33:18.502Z,102083.53
2023-02-05T17:38:20.504Z,102092.28
2023-02-05T17:43:21.794Z,102103.03
2023-02-05T17:48:23.142Z,102110.00
2023-02-05T17:53:24.863Z,102106.28
2023-02-05T17:58:26.290Z,102113.06
2023-02-05T18:03:27.608Z,102136.09
2023-02-05T18:08:29.691Z,102135.41
2023-02-05T18:13:31.029Z,102134.28
2023-02-05T18:18:35.718Z,102136.88
2023-02-05T18:23:37.182Z,102137.00
2023-02-05T18:28:38.629Z,102138.94
2023-02-05T18:33:40.348Z,102147.69
2023-02-05T18:38:45.898Z,102141.69
2023-02-05T18:43:47.496Z,102167.13
2023-02-05T18:48:49.311Z,102163.59
2023-02-05T18:53:50.853Z,102167.09
2023-02-05T18:59:02.286Z,102172.13
2023-02-05T19:04:06.588Z,102181.88
2023-02-05T19:09:08.149Z,102181.06
2023-02-05T19:14:12.241Z,102176.78
2023-02-05T19:19:17.356Z,102183.81
2023-02-05T19:24:19.844Z,102185.56
2023-02-05T19:29:21.270Z,102201.38
2023-02-05T19:34:23.370Z,102212.63
2023-02-05T19:39:24.998Z,102220.66
2023-02-05T19:44:27.506Z,102225.94
2023-02-05T19:49:28.922Z,102207.69
2023-02-05T19:54:30.404Z,102219.13
2023-02-05T19:59:31.824Z,102217.31
2023-02-05T20:04:33.255Z,102208.63
2023-02-05T20:09:34.749Z,102222.94
2023-02-05T20:14:36.039Z,102221.34
2023-02-05T20:19:37.443Z,102241.25
2023-02-05T20:24:38.788Z,102241.53
2023-02-05T20:29:59.119Z,102252.00
2023-02-05T20:35:00.510Z,102253.91
2023-02-05T20:40:01.882Z,102254.69
2023-02-05T20:45:03.473Z,102264.56
2023-02-05T20:50:05.864Z,102264.44
2023-02-05T20:55:07.621Z,102276.03
2023-02-05T21:00:10.045Z,102275.25
2023-02-05T21:05:11.326Z,102245.81
2023-02-05T21:10:12.660Z,102270.28
2023-02-05T21:15:14.221Z,102269.50
2023-02-05T21:20:15.968Z,102282.69
2023-02-05T21:25:17.398Z,102302.09
2023-02-05T21:30:19.506Z,102314.94
2023-02-05T21:35:21.095Z,102313.94
2023-02-05T21:40:22.828Z,102312.31
2023-02-05T21:45:24.290Z,102315.75
2023-02-05T21:50:25.664Z,102315.75
2023-02-05T21:55:27.020Z,102331.50
2023-02-05T22:00:28.937Z,102333.53
2023-02-05T22:05:30.773Z,102342.47
2023-02-05T22:10:32.151Z,102336.31
2023-02-05T22:15:33.702Z,102328.69
2023-02-05T22:20:35.184Z,102342.63
2023-02-05T22:25:37.777Z,102350.44
2023-02-05T22:30:39.928Z,102360.31
2023-02-05T22:35:41.244Z,102377.66
2023-02-05T22:40:42.669Z,102372.22
2023-02-05T22:45:44.322Z,102374.75
2023-02-05T22:50:45.981Z,102377.50
2023-02-05T22:55:47.411Z,102380.03
2023-02-05T23:00:48.763Z,102372.28
2023-02-05T23:05:50.770Z,102388.25
2023-02-05T23:10:52.348Z,102382.88
2023-02-05T23:15:53.658Z,102395.09
2023-02-05T23:20:54.968Z,102392.41
2023-02-05T23:25:56.326Z,102389.78
2023-02-05T23:30:57.716Z,102382.69
2023-02-05T23:35:59.744Z,102379.47
2023-02-05T23:41:01.572Z,102391.78
2023-02-05T23:46:03.550Z,102391.88
2023-02-05T23:51:04.897Z,102393.78
2023-02-05T23:56:06.301Z,102407.25
